sensor_id;sensor_type;location;lat;lon;timestamp;P1;durP1;ratioP1;P2;durP2;ratioP2
85022;SDS011;75348;43.126;-2.538;2024-02-16T00:00:10;14.88;;;3.55;;
85022;SDS011;75348;43.126;-2.538;2024-02-16T00:02:38;11.88;;;4.18;;
85022;SDS011;75348;43.126;-2.538;2024-02-16T00:05:06;11.98;;;4.55;;
85022;SDS011;75348;43.126;-2.538;2024-02-16T00:07:34;17.20;;;3.75;;
85022;SDS011;75348;43.126;-2.538;2024-02-16T00:10:01;13.82;;;3.85;;
85022;SDS011;75348;43.126;-2.538;2024-02-16T00:12:28;8.93;;;3.25;;
85022;SDS011;75348;43.126;-2.538;2024-02-16T00:14:55;11.20;;;3.90;;
85022;SDS011;75348;43.126;-2.538;2024-02-16T00:17:22;16.38;;;5.28;;
85022;SDS011;75348;43.126;-2.538;2024-02-16T00:19:53;20.70;;;4.72;;
85022;SDS011;75348;43.126;-2.538;2024-02-16T00:22:21;11.45;;;4.13;;
85022;SDS011;75348;43.126;-2.538;2024-02-16T00:24:48;14.90;;;4.40;;
85022;SDS011;75348;43.126;-2.538;2024-02-16T00:27:15;12.68;;;3.70;;
85022;SDS011;75348;43.126;-2.538;2024-02-16T00:29:42;17.27;;;4.68;;
85022;SDS011;75348;43.126;-2.538;2024-02-16T00:32:10;18.05;;;3.88;;
85022;SDS011;75348;43.126;-2.538;2024-02-16T00:34:37;13.77;;;3.95;;
85022;SDS011;75348;43.126;-2.538;2024-02-16T00:37:05;10.43;;;4.28;;
85022;SDS011;75348;43.126;-2.538;2024-02-16T00:39:36;17.50;;;5.10;;
85022;SDS011;75348;43.126;-2.538;2024-02-16T00:42:03;14.30;;;5.22;;
85022;SDS011;75348;43.126;-2.538;2024-02-16T00:44:30;19.85;;;4.70;;
85022;SDS011;75348;43.126;-2.538;2024-02-16T00:46:57;13.90;;;4.60;;
85022;SDS011;75348;43.126;-2.538;2024-02-16T00:49:24;16.40;;;4.90;;
85022;SDS011;75348;43.126;-2.538;2024-02-16T00:51:51;14.07;;;4.70;;
85022;SDS011;75348;43.126;-2.538;2024-02-16T00:56:48;9.77;;;3.88;;
85022;SDS011;75348;43.126;-2.538;2024-02-16T00:59:15;18.55;;;5.50;;
85022;SDS011;75348;43.126;-2.538;2024-02-16T01:01:43;16.85;;;6.00;;
85022;SDS011;75348;43.126;-2.538;2024-02-16T01:04:10;26.92;;;9.18;;
85022;SDS011;75348;43.126;-2.538;2024-02-16T01:06:37;21.75;;;7.45;;
85022;SDS011;75348;43.126;-2.538;2024-02-16T01:09:04;18.40;;;5.93;;
85022;SDS011;75348;43.126;-2.538;2024-02-16T01:11:31;20.08;;;5.90;;
85022;SDS011;75348;43.126;-2.538;2024-02-16T01:13:58;14.73;;;5.45;;
85022;SDS011;75348;43.126;-2.538;2024-02-16T01:16:25;11.65;;;4.97;;
85022;SDS011;75348;43.126;-2.538;2024-02-16T01:18:52;20.05;;;5.38;;
85022;SDS011;75348;43.126;-2.538;2024-02-16T01:21:19;12.38;;;5.53;;
85022;SDS011;75348;43.126;-2.538;2024-02-16T01:23:46;14.85;;;5.07;;
85022;SDS011;75348;43.126;-2.538;2024-02-16T01:26:13;15.88;;;5.60;;
85022;SDS011;75348;43.126;-2.538;2024-02-16T01:28:40;16.70;;;4.47;;
85022;SDS011;75348;43.126;-2.538;2024-02-16T01:31:07;13.13;;;5.15;;
85022;SDS011;75348;43.126;-2.538;2024-02-16T01:33:37;14.95;;;5.22;;
85022;SDS011;75348;43.126;-2.538;2024-02-16T01:36:04;13.70;;;4.50;;
85022;SDS011;75348;43.126;-2.538;2024-02-16T01:38:31;18.23;;;4.60;;
85022;SDS011;75348;43.126;-2.538;2024-02-16T01:40:58;14.35;;;4.55;;
85022;SDS011;75348;43.126;-2.538;2024-02-16T01:43:25;23.42;;;7.72;;
85022;SDS011;75348;43.126;-2.538;2024-02-16T01:45:53;19.80;;;7.03;;
85022;SDS011;75348;43.126;-2.538;2024-02-16T01:48:21;22.27;;;7.43;;
85022;SDS011;75348;43.126;-2.538;2024-02-16T01:50:48;21.10;;;8.10;;
85022;SDS011;75348;43.126;-2.538;2024-02-16T01:53:16;25.98;;;8.80;;
85022;SDS011;75348;43.126;-2.538;2024-02-16T01:55:47;22.38;;;8.85;;
85022;SDS011;75348;43.126;-2.538;2024-02-16T01:58:14;24.15;;;9.77;;
85022;SDS011;75348;43.126;-2.538;2024-02-16T02:00:41;28.67;;;9.82;;
85022;SDS011;75348;43.126;-2.538;2024-02-16T02:03:08;27.25;;;9.88;;
85022;SDS011;75348;43.126;-2.538;2024-02-16T02:05:45;32.55;;;10.13;;
85022;SDS011;75348;43.126;-2.538;2024-02-16T02:08:13;22.00;;;9.10;;
85022;SDS011;75348;43.126;-2.538;2024-02-16T02:10:42;27.92;;;9.73;;
85022;SDS011;75348;43.126;-2.538;2024-02-16T02:13:09;25.27;;;9.82;;
85022;SDS011;75348;43.126;-2.538;2024-02-16T02:15:36;26.58;;;10.45;;
85022;SDS011;75348;43.126;-2.538;2024-02-16T02:18:04;27.30;;;8.75;;
85022;SDS011;75348;43.126;-2.538;2024-02-16T02:20:32;24.80;;;8.85;;
85022;SDS011;75348;43.126;-2.538;2024-02-16T02:23:00;19.92;;;7.68;;
85022;SDS011;75348;43.126;-2.538;2024-02-16T02:25:27;23.70;;;9.20;;
85022;SDS011;75348;43.126;-2.538;2024-02-16T02:27:55;14.45;;;7.75;;
85022;SDS011;75348;43.126;-2.538;2024-02-16T02:30:22;23.63;;;8.15;;
85022;SDS011;75348;43.126;-2.538;2024-02-16T02:32:49;19.83;;;8.15;;
85022;SDS011;75348;43.126;-2.538;2024-02-16T02:35:17;18.70;;;7.95;;
85022;SDS011;75348;43.126;-2.538;2024-02-16T02:37:45;23.42;;;8.35;;
85022;SDS011;75348;43.126;-2.538;2024-02-16T02:40:12;16.38;;;7.15;;
85022;SDS011;75348;43.126;-2.538;2024-02-16T02:42:39;20.95;;;7.85;;
85022;SDS011;75348;43.126;-2.538;2024-02-16T02:45:06;18.55;;;7.70;;
85022;SDS011;75348;43.126;-2.538;2024-02-16T02:47:34;18.88;;;7.80;;
85022;SDS011;75348;43.126;-2.538;2024-02-16T02:50:01;13.95;;;7.07;;
85022;SDS011;75348;43.126;-2.538;2024-02-16T02:52:28;21.88;;;7.55;;
85022;SDS011;75348;43.126;-2.538;2024-02-16T02:54:55;16.77;;;6.72;;
85022;SDS011;75348;43.126;-2.538;2024-02-16T02:57:22;15.88;;;6.50;;
85022;SDS011;75348;43.126;-2.538;2024-02-16T02:59:49;12.20;;;6.68;;
85022;SDS011;75348;43.126;-2.538;2024-02-16T03:02:16;22.58;;;7.00;;
85022;SDS011;75348;43.126;-2.538;2024-02-16T03:04:43;17.30;;;6.63;;
85022;SDS011;75348;43.126;-2.538;2024-02-16T03:07:10;14.70;;;6.30;;
85022;SDS011;75348;43.126;-2.538;2024-02-16T03:09:37;11.63;;;6.05;;
85022;SDS011;75348;43.126;-2.538;2024-02-16T03:12:04;15.38;;;5.85;;
85022;SDS011;75348;43.126;-2.538;2024-02-16T03:14:31;7.22;;;4.80;;
85022;SDS011;75348;43.126;-2.538;2024-02-16T03:16:58;19.58;;;7.20;;
85022;SDS011;75348;43.126;-2.538;2024-02-16T03:19:25;16.92;;;6.35;;
85022;SDS011;75348;43.126;-2.538;2024-02-16T03:21:52;11.70;;;4.50;;
85022;SDS011;75348;43.126;-2.538;2024-02-16T03:24:20;10.32;;;5.10;;
85022;SDS011;75348;43.126;-2.538;2024-02-16T03:26:47;14.43;;;5.78;;
85022;SDS011;75348;43.126;-2.538;2024-02-16T03:29:15;15.85;;;5.78;;
85022;SDS011;75348;43.126;-2.538;2024-02-16T03:31:42;14.68;;;6.35;;
85022;SDS011;75348;43.126;-2.538;2024-02-16T03:34:09;15.75;;;5.70;;
85022;SDS011;75348;43.126;-2.538;2024-02-16T03:36:36;17.42;;;6.75;;
85022;SDS011;75348;43.126;-2.538;2024-02-16T03:39:03;14.60;;;6.68;;
85022;SDS011;75348;43.126;-2.538;2024-02-16T03:41:30;14.27;;;5.72;;
85022;SDS011;75348;43.126;-2.538;2024-02-16T03:43:57;21.90;;;6.88;;
85022;SDS011;75348;43.126;-2.538;2024-02-16T03:46:25;15.57;;;6.40;;
85022;SDS011;75348;43.126;-2.538;2024-02-16T03:48:52;13.48;;;6.22;;
85022;SDS011;75348;43.126;-2.538;2024-02-16T03:51:19;17.27;;;6.38;;
85022;SDS011;75348;43.126;-2.538;2024-02-16T03:53:46;17.52;;;7.13;;
85022;SDS011;75348;43.126;-2.538;2024-02-16T03:56:19;11.10;;;5.03;;
85022;SDS011;75348;43.126;-2.538;2024-02-16T03:58:47;11.77;;;5.80;;
85022;SDS011;75348;43.126;-2.538;2024-02-16T04:01:14;14.75;;;7.18;;
85022;SDS011;75348;43.126;-2.538;2024-02-16T04:03:41;19.20;;;8.10;;
85022;SDS011;75348;43.126;-2.538;2024-02-16T04:06:08;14.40;;;6.63;;
85022;SDS011;75348;43.126;-2.538;2024-02-16T04:08:36;10.07;;;5.50;;
85022;SDS011;75348;43.126;-2.538;2024-02-16T04:11:03;16.25;;;5.55;;
85022;SDS011;75348;43.126;-2.538;2024-02-16T04:13:30;13.13;;;5.82;;
85022;SDS011;75348;43.126;-2.538;2024-02-16T04:15:59;12.30;;;5.82;;
85022;SDS011;75348;43.126;-2.538;2024-02-16T04:18:26;13.70;;;5.60;;
85022;SDS011;75348;43.126;-2.538;2024-02-16T04:20:53;12.52;;;5.72;;
85022;SDS011;75348;43.126;-2.538;2024-02-16T04:23:20;10.70;;;5.45;;
85022;SDS011;75348;43.126;-2.538;2024-02-16T04:25:47;12.40;;;5.50;;
85022;SDS011;75348;43.126;-2.538;2024-02-16T04:28:14;12.90;;;5.45;;
85022;SDS011;75348;43.126;-2.538;2024-02-16T04:30:41;14.38;;;5.22;;
85022;SDS011;75348;43.126;-2.538;2024-02-16T04:33:09;12.57;;;6.03;;
85022;SDS011;75348;43.126;-2.538;2024-02-16T04:35:36;13.90;;;6.13;;
85022;SDS011;75348;43.126;-2.538;2024-02-16T04:38:03;12.75;;;5.63;;
85022;SDS011;75348;43.126;-2.538;2024-02-16T04:40:33;12.80;;;5.45;;
85022;SDS011;75348;43.126;-2.538;2024-02-16T04:43:03;11.70;;;5.97;;
85022;SDS011;75348;43.126;-2.538;2024-02-16T04:45:30;16.13;;;6.13;;
85022;SDS011;75348;43.126;-2.538;2024-02-16T04:48:01;16.15;;;6.85;;
85022;SDS011;75348;43.126;-2.538;2024-02-16T04:50:29;19.73;;;7.10;;
85022;SDS011;75348;43.126;-2.538;2024-02-16T04:52:57;17.52;;;7.50;;
85022;SDS011;75348;43.126;-2.538;2024-02-16T04:55:24;17.77;;;8.15;;
85022;SDS011;75348;43.126;-2.538;2024-02-16T04:57:51;13.73;;;7.25;;
85022;SDS011;75348;43.126;-2.538;2024-02-16T05:00:18;18.85;;;6.65;;
85022;SDS011;75348;43.126;-2.538;2024-02-16T05:02:45;14.77;;;6.65;;
85022;SDS011;75348;43.126;-2.538;2024-02-16T05:05:13;20.38;;;8.40;;
85022;SDS011;75348;43.126;-2.538;2024-02-16T05:07:42;17.08;;;7.47;;
85022;SDS011;75348;43.126;-2.538;2024-02-16T05:10:09;20.20;;;7.43;;
85022;SDS011;75348;43.126;-2.538;2024-02-16T05:12:36;18.83;;;7.28;;
85022;SDS011;75348;43.126;-2.538;2024-02-16T05:15:04;16.73;;;6.75;;
85022;SDS011;75348;43.126;-2.538;2024-02-16T05:17:32;19.33;;;7.07;;
85022;SDS011;75348;43.126;-2.538;2024-02-16T05:19:59;18.40;;;6.40;;
85022;SDS011;75348;43.126;-2.538;2024-02-16T05:22:27;18.85;;;6.88;;
85022;SDS011;75348;43.126;-2.538;2024-02-16T05:24:54;14.95;;;7.32;;
85022;SDS011;75348;43.126;-2.538;2024-02-16T05:27:20;13.13;;;6.28;;
85022;SDS011;75348;43.126;-2.538;2024-02-16T05:29:48;16.13;;;6.43;;
85022;SDS011;75348;43.126;-2.538;2024-02-16T05:32:15;14.98;;;7.70;;
85022;SDS011;75348;43.126;-2.538;2024-02-16T05:34:42;18.35;;;7.03;;
85022;SDS011;75348;43.126;-2.538;2024-02-16T05:37:09;14.23;;;6.82;;
85022;SDS011;75348;43.126;-2.538;2024-02-16T05:39:36;20.23;;;9.60;;
85022;SDS011;75348;43.126;-2.538;2024-02-16T05:42:20;17.00;;;7.28;;
85022;SDS011;75348;43.126;-2.538;2024-02-16T05:44:50;17.75;;;8.20;;
85022;SDS011;75348;43.126;-2.538;2024-02-16T05:47:18;21.67;;;8.85;;
85022;SDS011;75348;43.126;-2.538;2024-02-16T05:49:46;18.02;;;8.70;;
85022;SDS011;75348;43.126;-2.538;2024-02-16T05:52:13;17.95;;;9.30;;
85022;SDS011;75348;43.126;-2.538;2024-02-16T05:54:47;17.20;;;8.73;;
85022;SDS011;75348;43.126;-2.538;2024-02-16T05:57:16;24.08;;;10.45;;
85022;SDS011;75348;43.126;-2.538;2024-02-16T05:59:43;27.98;;;10.02;;
85022;SDS011;75348;43.126;-2.538;2024-02-16T06:02:13;19.00;;;9.20;;
85022;SDS011;75348;43.126;-2.538;2024-02-16T06:04:40;20.65;;;9.60;;
85022;SDS011;75348;43.126;-2.538;2024-02-16T06:07:08;23.70;;;9.75;;
85022;SDS011;75348;43.126;-2.538;2024-02-16T06:09:35;19.45;;;10.15;;
85022;SDS011;75348;43.126;-2.538;2024-02-16T06:12:04;21.05;;;9.75;;
85022;SDS011;75348;43.126;-2.538;2024-02-16T06:14:31;24.00;;;10.25;;
85022;SDS011;75348;43.126;-2.538;2024-02-16T06:16:58;13.45;;;8.82;;
85022;SDS011;75348;43.126;-2.538;2024-02-16T06:19:26;28.17;;;11.88;;
85022;SDS011;75348;43.126;-2.538;2024-02-16T06:21:54;21.08;;;10.98;;
85022;SDS011;75348;43.126;-2.538;2024-02-16T06:24:25;19.55;;;9.68;;
85022;SDS011;75348;43.126;-2.538;2024-02-16T06:26:52;24.40;;;8.95;;
85022;SDS011;75348;43.126;-2.538;2024-02-16T06:29:23;17.38;;;7.90;;
85022;SDS011;75348;43.126;-2.538;2024-02-16T06:31:50;17.08;;;7.88;;
85022;SDS011;75348;43.126;-2.538;2024-02-16T06:34:19;19.15;;;7.80;;
85022;SDS011;75348;43.126;-2.538;2024-02-16T06:36:46;19.85;;;7.65;;
85022;SDS011;75348;43.126;-2.538;2024-02-16T06:39:15;18.48;;;7.90;;
85022;SDS011;75348;43.126;-2.538;2024-02-16T06:44:14;18.67;;;7.28;;
85022;SDS011;75348;43.126;-2.538;2024-02-16T06:46:45;21.60;;;9.95;;
85022;SDS011;75348;43.126;-2.538;2024-02-16T06:49:12;27.88;;;11.25;;
85022;SDS011;75348;43.126;-2.538;2024-02-16T06:51:39;20.27;;;9.80;;
85022;SDS011;75348;43.126;-2.538;2024-02-16T06:54:06;22.38;;;10.60;;
85022;SDS011;75348;43.126;-2.538;2024-02-16T06:56:34;17.58;;;9.05;;
85022;SDS011;75348;43.126;-2.538;2024-02-16T06:59:02;14.43;;;8.85;;
85022;SDS011;75348;43.126;-2.538;2024-02-16T07:01:29;15.27;;;8.88;;
85022;SDS011;75348;43.126;-2.538;2024-02-16T07:03:56;16.77;;;8.73;;
85022;SDS011;75348;43.126;-2.538;2024-02-16T07:06:24;15.02;;;8.05;;
85022;SDS011;75348;43.126;-2.538;2024-02-16T07:08:51;15.25;;;9.18;;
85022;SDS011;75348;43.126;-2.538;2024-02-16T07:11:18;18.25;;;10.18;;
85022;SDS011;75348;43.126;-2.538;2024-02-16T07:13:47;20.58;;;10.05;;
85022;SDS011;75348;43.126;-2.538;2024-02-16T07:16:14;15.55;;;8.82;;
85022;SDS011;75348;43.126;-2.538;2024-02-16T07:18:41;18.05;;;8.35;;
85022;SDS011;75348;43.126;-2.538;2024-02-16T07:21:09;18.15;;;8.27;;
85022;SDS011;75348;43.126;-2.538;2024-02-16T07:23:37;16.63;;;7.72;;
85022;SDS011;75348;43.126;-2.538;2024-02-16T07:26:04;18.17;;;8.98;;
85022;SDS011;75348;43.126;-2.538;2024-02-16T07:28:33;22.02;;;9.13;;
85022;SDS011;75348;43.126;-2.538;2024-02-16T07:31:01;17.30;;;8.52;;
85022;SDS011;75348;43.126;-2.538;2024-02-16T07:33:28;25.38;;;11.25;;
85022;SDS011;75348;43.126;-2.538;2024-02-16T07:35:56;25.65;;;13.35;;
85022;SDS011;75348;43.126;-2.538;2024-02-16T07:38:23;35.45;;;15.55;;
85022;SDS011;75348;43.126;-2.538;2024-02-16T07:40:50;33.08;;;15.15;;
85022;SDS011;75348;43.126;-2.538;2024-02-16T07:43:17;34.22;;;14.52;;
85022;SDS011;75348;43.126;-2.538;2024-02-16T07:45:45;37.60;;;16.55;;
85022;SDS011;75348;43.126;-2.538;2024-02-16T07:48:12;36.13;;;17.05;;
85022;SDS011;75348;43.126;-2.538;2024-02-16T07:50:40;36.63;;;18.15;;
85022;SDS011;75348;43.126;-2.538;2024-02-16T07:53:07;37.40;;;17.02;;
85022;SDS011;75348;43.126;-2.538;2024-02-16T07:55:36;36.88;;;16.67;;
85022;SDS011;75348;43.126;-2.538;2024-02-16T07:58:03;31.75;;;15.73;;
85022;SDS011;75348;43.126;-2.538;2024-02-16T08:00:30;38.42;;;17.38;;
85022;SDS011;75348;43.126;-2.538;2024-02-16T08:02:58;27.20;;;13.80;;
85022;SDS011;75348;43.126;-2.538;2024-02-16T08:05:25;30.05;;;14.35;;
85022;SDS011;75348;43.126;-2.538;2024-02-16T08:07:53;29.20;;;13.85;;
85022;SDS011;75348;43.126;-2.538;2024-02-16T08:10:22;24.23;;;12.55;;
85022;SDS011;75348;43.126;-2.538;2024-02-16T08:12:49;23.85;;;12.32;;
85022;SDS011;75348;43.126;-2.538;2024-02-16T08:15:17;25.20;;;13.85;;
85022;SDS011;75348;43.126;-2.538;2024-02-16T08:17:50;35.10;;;13.88;;
85022;SDS011;75348;43.126;-2.538;2024-02-16T08:20:18;18.63;;;9.43;;
85022;SDS011;75348;43.126;-2.538;2024-02-16T08:22:45;16.48;;;7.30;;
85022;SDS011;75348;43.126;-2.538;2024-02-16T08:25:13;15.32;;;8.60;;
85022;SDS011;75348;43.126;-2.538;2024-02-16T08:27:40;18.13;;;8.18;;
85022;SDS011;75348;43.126;-2.538;2024-02-16T08:30:07;15.93;;;6.90;;
85022;SDS011;75348;43.126;-2.538;2024-02-16T08:32:39;19.23;;;6.60;;
85022;SDS011;75348;43.126;-2.538;2024-02-16T08:35:06;15.95;;;6.40;;
85022;SDS011;75348;43.126;-2.538;2024-02-16T08:37:34;19.40;;;7.25;;
85022;SDS011;75348;43.126;-2.538;2024-02-16T08:40:01;16.83;;;5.93;;
85022;SDS011;75348;43.126;-2.538;2024-02-16T08:42:28;23.00;;;7.03;;
85022;SDS011;75348;43.126;-2.538;2024-02-16T08:44:55;14.45;;;6.35;;
85022;SDS011;75348;43.126;-2.538;2024-02-16T08:47:24;15.23;;;6.80;;
85022;SDS011;75348;43.126;-2.538;2024-02-16T08:49:51;18.63;;;8.38;;
85022;SDS011;75348;43.126;-2.538;2024-02-16T08:52:18;15.38;;;8.27;;
85022;SDS011;75348;43.126;-2.538;2024-02-16T08:54:45;19.67;;;6.80;;
85022;SDS011;75348;43.126;-2.538;2024-02-16T08:57:12;20.13;;;7.20;;
85022;SDS011;75348;43.126;-2.538;2024-02-16T08:59:39;17.83;;;6.90;;
85022;SDS011;75348;43.126;-2.538;2024-02-16T09:02:06;19.95;;;8.63;;
85022;SDS011;75348;43.126;-2.538;2024-02-16T09:04:34;21.92;;;8.98;;
85022;SDS011;75348;43.126;-2.538;2024-02-16T09:07:01;18.00;;;7.57;;
85022;SDS011;75348;43.126;-2.538;2024-02-16T09:09:28;21.15;;;6.95;;
85022;SDS011;75348;43.126;-2.538;2024-02-16T09:11:55;19.33;;;7.45;;
85022;SDS011;75348;43.126;-2.538;2024-02-16T09:14:22;14.82;;;6.68;;
85022;SDS011;75348;43.126;-2.538;2024-02-16T09:16:50;11.75;;;6.07;;
85022;SDS011;75348;43.126;-2.538;2024-02-16T09:19:20;15.40;;;5.85;;
85022;SDS011;75348;43.126;-2.538;2024-02-16T09:21:48;16.42;;;6.00;;
85022;SDS011;75348;43.126;-2.538;2024-02-16T09:24:16;14.10;;;5.05;;
85022;SDS011;75348;43.126;-2.538;2024-02-16T09:26:45;22.15;;;5.85;;
85022;SDS011;75348;43.126;-2.538;2024-02-16T09:29:15;11.38;;;5.22;;
85022;SDS011;75348;43.126;-2.538;2024-02-16T09:31:43;23.70;;;6.30;;
85022;SDS011;75348;43.126;-2.538;2024-02-16T09:34:10;13.93;;;5.00;;
85022;SDS011;75348;43.126;-2.538;2024-02-16T09:36:37;11.98;;;4.38;;
85022;SDS011;75348;43.126;-2.538;2024-02-16T09:39:04;11.85;;;4.53;;
85022;SDS011;75348;43.126;-2.538;2024-02-16T09:41:35;11.65;;;4.38;;
85022;SDS011;75348;43.126;-2.538;2024-02-16T09:44:04;16.70;;;4.53;;
85022;SDS011;75348;43.126;-2.538;2024-02-16T09:46:33;13.23;;;4.80;;
85022;SDS011;75348;43.126;-2.538;2024-02-16T09:49:03;13.75;;;4.85;;
85022;SDS011;75348;43.126;-2.538;2024-02-16T09:51:31;16.20;;;5.38;;
85022;SDS011;75348;43.126;-2.538;2024-02-16T09:54:02;17.02;;;5.22;;
85022;SDS011;75348;43.126;-2.538;2024-02-16T09:56:29;15.50;;;6.40;;
85022;SDS011;75348;43.126;-2.538;2024-02-16T09:58:56;17.55;;;6.40;;
85022;SDS011;75348;43.126;-2.538;2024-02-16T10:01:23;22.30;;;5.82;;
85022;SDS011;75348;43.126;-2.538;2024-02-16T10:03:51;16.27;;;4.90;;
85022;SDS011;75348;43.126;-2.538;2024-02-16T10:06:18;9.15;;;4.20;;
85022;SDS011;75348;43.126;-2.538;2024-02-16T10:08:53;9.93;;;4.13;;
85022;SDS011;75348;43.126;-2.538;2024-02-16T10:11:21;10.98;;;4.30;;
85022;SDS011;75348;43.126;-2.538;2024-02-16T10:13:57;11.43;;;3.42;;
85022;SDS011;75348;43.126;-2.538;2024-02-16T10:16:25;9.10;;;3.80;;
85022;SDS011;75348;43.126;-2.538;2024-02-16T10:19:07;14.32;;;4.18;;
85022;SDS011;75348;43.126;-2.538;2024-02-16T10:21:41;11.77;;;3.90;;
85022;SDS011;75348;43.126;-2.538;2024-02-16T10:24:09;15.02;;;3.47;;
85022;SDS011;75348;43.126;-2.538;2024-02-16T10:26:38;9.23;;;3.35;;
85022;SDS011;75348;43.126;-2.538;2024-02-16T10:29:08;12.50;;;3.35;;
85022;SDS011;75348;43.126;-2.538;2024-02-16T10:31:36;9.65;;;3.33;;
85022;SDS011;75348;43.126;-2.538;2024-02-16T10:34:04;11.80;;;3.72;;
85022;SDS011;75348;43.126;-2.538;2024-02-16T10:36:33;12.38;;;4.40;;
85022;SDS011;75348;43.126;-2.538;2024-02-16T10:39:03;17.23;;;4.03;;
85022;SDS011;75348;43.126;-2.538;2024-02-16T10:41:38;15.05;;;4.25;;
85022;SDS011;75348;43.126;-2.538;2024-02-16T10:44:07;10.75;;;3.92;;
85022;SDS011;75348;43.126;-2.538;2024-02-16T10:46:35;14.77;;;3.85;;
85022;SDS011;75348;43.126;-2.538;2024-02-16T10:49:03;15.27;;;3.95;;
85022;SDS011;75348;43.126;-2.538;2024-02-16T10:54:06;15.70;;;4.50;;
85022;SDS011;75348;43.126;-2.538;2024-02-16T10:56:35;20.38;;;4.68;;
85022;SDS011;75348;43.126;-2.538;2024-02-16T10:59:04;19.58;;;4.93;;
85022;SDS011;75348;43.126;-2.538;2024-02-16T11:01:38;15.55;;;3.95;;
85022;SDS011;75348;43.126;-2.538;2024-02-16T11:04:07;12.50;;;3.50;;
85022;SDS011;75348;43.126;-2.538;2024-02-16T11:06:48;7.05;;;2.63;;
85022;SDS011;75348;43.126;-2.538;2024-02-16T11:09:25;9.32;;;2.72;;
85022;SDS011;75348;43.126;-2.538;2024-02-16T11:11:54;5.25;;;2.13;;
85022;SDS011;75348;43.126;-2.538;2024-02-16T11:14:33;6.97;;;2.10;;
85022;SDS011;75348;43.126;-2.538;2024-02-16T11:17:02;5.18;;;1.80;;
85022;SDS011;75348;43.126;-2.538;2024-02-16T11:19:41;7.40;;;2.33;;
85022;SDS011;75348;43.126;-2.538;2024-02-16T11:22:09;10.07;;;3.00;;
85022;SDS011;75348;43.126;-2.538;2024-02-16T11:24:48;7.38;;;2.60;;
85022;SDS011;75348;43.126;-2.538;2024-02-16T11:27:16;10.38;;;3.08;;
85022;SDS011;75348;43.126;-2.538;2024-02-16T11:29:48;18.83;;;3.92;;
85022;SDS011;75348;43.126;-2.538;2024-02-16T11:32:18;8.52;;;2.17;;
85022;SDS011;75348;43.126;-2.538;2024-02-16T11:34:46;8.55;;;2.30;;
85022;SDS011;75348;43.126;-2.538;2024-02-16T11:37:14;8.82;;;2.20;;
85022;SDS011;75348;43.126;-2.538;2024-02-16T11:39:43;7.88;;;2.03;;
85022;SDS011;75348;43.126;-2.538;2024-02-16T11:42:13;10.48;;;3.00;;
85022;SDS011;75348;43.126;-2.538;2024-02-16T11:44:53;12.10;;;3.53;;
85022;SDS011;75348;43.126;-2.538;2024-02-16T11:47:23;12.18;;;3.97;;
85022;SDS011;75348;43.126;-2.538;2024-02-16T11:50:06;9.13;;;3.20;;
85022;SDS011;75348;43.126;-2.538;2024-02-16T11:52:38;10.68;;;2.95;;
85022;SDS011;75348;43.126;-2.538;2024-02-16T11:55:09;4.47;;;2.17;;
85022;SDS011;75348;43.126;-2.538;2024-02-16T11:57:38;10.38;;;2.65;;
85022;SDS011;75348;43.126;-2.538;2024-02-16T12:00:05;8.38;;;2.92;;
85022;SDS011;75348;43.126;-2.538;2024-02-16T12:02:42;17.67;;;5.15;;
85022;SDS011;75348;43.126;-2.538;2024-02-16T12:05:09;13.63;;;3.58;;
85022;SDS011;75348;43.126;-2.538;2024-02-16T12:07:40;17.48;;;6.18;;
85022;SDS011;75348;43.126;-2.538;2024-02-16T12:10:08;14.45;;;2.83;;
85022;SDS011;75348;43.126;-2.538;2024-02-16T12:12:36;12.77;;;2.67;;
85022;SDS011;75348;43.126;-2.538;2024-02-16T12:15:04;16.08;;;5.00;;
85022;SDS011;75348;43.126;-2.538;2024-02-16T12:19:59;15.70;;;4.63;;
85022;SDS011;75348;43.126;-2.538;2024-02-16T12:22:28;15.32;;;3.88;;
85022;SDS011;75348;43.126;-2.538;2024-02-16T12:24:55;16.88;;;5.15;;
85022;SDS011;75348;43.126;-2.538;2024-02-16T12:27:24;8.30;;;2.60;;
85022;SDS011;75348;43.126;-2.538;2024-02-16T12:29:51;13.00;;;3.42;;
85022;SDS011;75348;43.126;-2.538;2024-02-16T12:32:19;25.73;;;7.15;;
85022;SDS011;75348;43.126;-2.538;2024-02-16T12:34:46;23.20;;;6.57;;
85022;SDS011;75348;43.126;-2.538;2024-02-16T12:37:14;16.38;;;3.35;;
85022;SDS011;75348;43.126;-2.538;2024-02-16T12:39:41;10.70;;;3.17;;
85022;SDS011;75348;43.126;-2.538;2024-02-16T12:42:08;10.40;;;2.90;;
85022;SDS011;75348;43.126;-2.538;2024-02-16T12:44:35;14.77;;;3.67;;
85022;SDS011;75348;43.126;-2.538;2024-02-16T12:47:02;12.23;;;3.03;;
85022;SDS011;75348;43.126;-2.538;2024-02-16T12:49:29;11.85;;;2.53;;
85022;SDS011;75348;43.126;-2.538;2024-02-16T12:51:57;8.10;;;3.42;;
85022;SDS011;75348;43.126;-2.538;2024-02-16T12:54:24;10.93;;;2.78;;
85022;SDS011;75348;43.126;-2.538;2024-02-16T12:56:51;12.20;;;3.20;;
85022;SDS011;75348;43.126;-2.538;2024-02-16T12:59:19;12.00;;;3.30;;
85022;SDS011;75348;43.126;-2.538;2024-02-16T13:01:46;13.23;;;2.75;;
85022;SDS011;75348;43.126;-2.538;2024-02-16T13:04:13;14.32;;;2.92;;
85022;SDS011;75348;43.126;-2.538;2024-02-16T13:06:48;17.85;;;3.28;;
85022;SDS011;75348;43.126;-2.538;2024-02-16T13:09:16;8.45;;;2.30;;
85022;SDS011;75348;43.126;-2.538;2024-02-16T13:11:43;10.38;;;2.30;;
85022;SDS011;75348;43.126;-2.538;2024-02-16T13:14:10;7.07;;;2.85;;
85022;SDS011;75348;43.126;-2.538;2024-02-16T13:16:37;15.70;;;2.88;;
85022;SDS011;75348;43.126;-2.538;2024-02-16T13:19:05;7.60;;;2.47;;
85022;SDS011;75348;43.126;-2.538;2024-02-16T13:21:32;8.57;;;2.40;;
85022;SDS011;75348;43.126;-2.538;2024-02-16T13:23:59;13.73;;;3.47;;
85022;SDS011;75348;43.126;-2.538;2024-02-16T13:26:27;9.02;;;2.58;;
85022;SDS011;75348;43.126;-2.538;2024-02-16T13:28:54;10.13;;;2.58;;
85022;SDS011;75348;43.126;-2.538;2024-02-16T13:31:22;9.77;;;2.67;;
85022;SDS011;75348;43.126;-2.538;2024-02-16T13:33:50;7.13;;;1.92;;
85022;SDS011;75348;43.126;-2.538;2024-02-16T13:36:20;8.88;;;2.88;;
85022;SDS011;75348;43.126;-2.538;2024-02-16T13:38:47;15.07;;;3.20;;
85022;SDS011;75348;43.126;-2.538;2024-02-16T13:41:14;12.63;;;2.42;;
85022;SDS011;75348;43.126;-2.538;2024-02-16T13:43:45;6.97;;;2.30;;
85022;SDS011;75348;43.126;-2.538;2024-02-16T13:46:13;12.02;;;3.13;;
85022;SDS011;75348;43.126;-2.538;2024-02-16T13:48:41;6.50;;;2.15;;
85022;SDS011;75348;43.126;-2.538;2024-02-16T13:51:08;10.95;;;2.50;;
85022;SDS011;75348;43.126;-2.538;2024-02-16T13:53:36;11.95;;;2.25;;
85022;SDS011;75348;43.126;-2.538;2024-02-16T13:56:03;10.30;;;2.42;;
85022;SDS011;75348;43.126;-2.538;2024-02-16T13:58:34;14.60;;;2.97;;
85022;SDS011;75348;43.126;-2.538;2024-02-16T14:01:01;8.18;;;2.28;;
85022;SDS011;75348;43.126;-2.538;2024-02-16T14:03:33;6.68;;;2.10;;
85022;SDS011;75348;43.126;-2.538;2024-02-16T14:06:01;10.75;;;2.83;;
85022;SDS011;75348;43.126;-2.538;2024-02-16T14:08:28;12.13;;;2.75;;
85022;SDS011;75348;43.126;-2.538;2024-02-16T14:10:57;14.73;;;2.85;;
85022;SDS011;75348;43.126;-2.538;2024-02-16T14:13:24;10.27;;;2.53;;
85022;SDS011;75348;43.126;-2.538;2024-02-16T14:15:51;9.95;;;2.40;;
85022;SDS011;75348;43.126;-2.538;2024-02-16T14:18:19;8.90;;;2.53;;
85022;SDS011;75348;43.126;-2.538;2024-02-16T14:21:00;11.43;;;2.58;;
85022;SDS011;75348;43.126;-2.538;2024-02-16T14:23:28;16.23;;;2.65;;
85022;SDS011;75348;43.126;-2.538;2024-02-16T14:25:57;12.60;;;2.53;;
85022;SDS011;75348;43.126;-2.538;2024-02-16T14:28:24;10.52;;;2.55;;
85022;SDS011;75348;43.126;-2.538;2024-02-16T14:30:51;10.18;;;2.70;;
85022;SDS011;75348;43.126;-2.538;2024-02-16T14:33:18;13.27;;;2.42;;
85022;SDS011;75348;43.126;-2.538;2024-02-16T14:35:59;7.80;;;2.25;;